sensor_id;sensor_type;location;lat;lon;timestamp;pressure;altitude;pressure_sealevel;temperature;humidity
64343;BME280;50675;53.530;-6.312;2023-05-03T00:56:03;101858.03;;;14.48;63.21
64343;BME280;50675;53.530;-6.312;2023-05-03T05:31:04;101787.47;;;14.24;65.22
64343;BME280;50675;53.530;-6.312;2023-05-03T05:33:47;101781.38;;;14.34;65.10
64343;BME280;50675;53.530;-6.312;2023-05-03T05:36:19;101781.13;;;14.35;65.11
64343;BME280;50675;53.530;-6.312;2023-05-03T05:39:02;101779.94;;;14.43;65.31
64343;BME280;50675;53.530;-6.312;2023-05-03T05:41:31;101780.22;;;14.30;65.36
64343;BME280;50675;53.530;-6.312;2023-05-03T05:44:04;101785.94;;;14.45;65.20
64343;BME280;50675;53.530;-6.312;2023-05-03T05:46:59;101786.03;;;14.50;65.21
64343;BME280;50675;53.530;-6.312;2023-05-03T05:52:29;101785.28;;;14.38;65.24
64343;BME280;50675;53.530;-6.312;2023-05-03T05:55:18;101788.47;;;14.35;65.59
64343;BME280;50675;53.530;-6.312;2023-05-03T05:58:34;101805.50;;;14.59;65.47
64343;BME280;50675;53.530;-6.312;2023-05-03T06:01:33;101797.16;;;14.65;65.45
64343;BME280;50675;53.530;-6.312;2023-05-03T06:04:15;101798.22;;;14.81;65.50
64343;BME280;50675;53.530;-6.312;2023-05-03T06:06:53;101789.47;;;14.96;65.54
64343;BME280;50675;53.530;-6.312;2023-05-03T06:09:35;101801.31;;;15.23;65.70
64343;BME280;50675;53.530;-6.312;2023-05-03T06:12:19;101787.31;;;15.14;65.53
64343;BME280;50675;53.530;-6.312;2023-05-03T06:17:48;101790.47;;;14.89;65.50
64343;BME280;50675;53.530;-6.312;2023-05-03T06:20:47;101789.47;;;14.96;65.76
64343;BME280;50675;53.530;-6.312;2023-05-03T06:23:56;101790.34;;;15.18;65.78
64343;BME280;50675;53.530;-6.312;2023-05-03T06:26:59;101800.00;;;15.09;65.83
64343;BME280;50675;53.530;-6.312;2023-05-03T06:30:09;101797.78;;;15.44;65.87
64343;BME280;50675;53.530;-6.312;2023-05-03T06:33:09;101787.53;;;15.73;65.84
64343;BME280;50675;53.530;-6.312;2023-05-03T06:36:10;101805.41;;;15.86;65.63
64343;BME280;50675;53.530;-6.312;2023-05-03T06:39:36;101807.13;;;15.92;65.78
64343;BME280;50675;53.530;-6.312;2023-05-03T06:42:30;101794.19;;;15.82;65.66
64343;BME280;50675;53.530;-6.312;2023-05-03T06:45:25;101792.03;;;16.11;65.50
64343;BME280;50675;53.530;-6.312;2023-05-03T06:48:20;101784.75;;;15.90;65.46
64343;BME280;50675;53.530;-6.312;2023-05-03T06:51:27;101792.50;;;16.03;65.48
64343;BME280;50675;53.530;-6.312;2023-05-03T06:54:36;101789.78;;;16.03;65.65
64343;BME280;50675;53.530;-6.312;2023-05-03T06:57:49;101781.59;;;15.76;65.72
64343;BME280;50675;53.530;-6.312;2023-05-03T07:00:24;101785.88;;;15.94;65.64
64343;BME280;50675;53.530;-6.312;2023-05-03T07:02:56;101780.16;;;15.95;65.61
64343;BME280;50675;53.530;-6.312;2023-05-03T07:05:40;101791.38;;;15.99;65.55
64343;BME280;50675;53.530;-6.312;2023-05-03T07:09:01;101783.66;;;16.17;65.65
64343;BME280;50675;53.530;-6.312;2023-05-03T07:12:22;101783.34;;;16.14;65.61
64343;BME280;50675;53.530;-6.312;2023-05-03T07:15:07;101786.25;;;16.29;65.52
64343;BME280;50675;53.530;-6.312;2023-05-03T07:17:43;101787.91;;;16.35;65.31
64343;BME280;50675;53.530;-6.312;2023-05-03T07:20:46;101775.47;;;16.17;65.63
64343;BME280;50675;53.530;-6.312;2023-05-03T07:23:56;101797.59;;;16.21;65.53
64343;BME280;50675;53.530;-6.312;2023-05-03T07:27:09;101783.34;;;16.14;65.32
64343;BME280;50675;53.530;-6.312;2023-05-03T07:30:05;101779.03;;;16.18;65.39
64343;BME280;50675;53.530;-6.312;2023-05-03T07:37:09;101777.81;;;16.04;65.20
64343;BME280;50675;53.530;-6.312;2023-05-03T07:40:09;101779.59;;;16.20;64.98
64343;BME280;50675;53.530;-6.312;2023-05-03T07:43:04;101778.97;;;16.13;64.88
64343;BME280;50675;53.530;-6.312;2023-05-03T07:45:55;101776.84;;;16.15;65.05
64343;BME280;50675;53.530;-6.312;2023-05-03T07:48:47;101775.94;;;16.36;65.01
64343;BME280;50675;53.530;-6.312;2023-05-03T07:51:25;101773.06;;;16.21;65.13
64343;BME280;50675;53.530;-6.312;2023-05-03T07:54:16;101773.25;;;15.88;65.14
64343;BME280;50675;53.530;-6.312;2023-05-03T08:00:51;101778.91;;;16.35;64.77
64343;BME280;50675;53.530;-6.312;2023-05-03T08:03:25;101774.34;;;16.13;64.80
64343;BME280;50675;53.530;-6.312;2023-05-03T08:06:06;101782.34;;;16.25;64.62
64343;BME280;50675;53.530;-6.312;2023-05-03T08:08:59;101776.28;;;16.45;64.59
64343;BME280;50675;53.530;-6.312;2023-05-03T08:15:47;101789.84;;;16.08;64.27
64343;BME280;50675;53.530;-6.312;2023-05-03T08:18:21;101795.97;;;16.52;64.37
64343;BME280;50675;53.530;-6.312;2023-05-03T08:22:13;101783.66;;;16.49;64.35
64343;BME280;50675;53.530;-6.312;2023-05-03T08:25:05;101785.78;;;16.69;64.39
64343;BME280;50675;53.530;-6.312;2023-05-03T08:31:01;101779.91;;;16.55;64.31
64343;BME280;50675;53.530;-6.312;2023-05-03T08:33:50;101779.81;;;16.45;64.43
64343;BME280;50675;53.530;-6.312;2023-05-03T08:36:30;101780.22;;;16.59;64.07
64343;BME280;50675;53.530;-6.312;2023-05-03T08:39:22;101782.78;;;16.71;64.21
64343;BME280;50675;53.530;-6.312;2023-05-03T08:42:14;101787.78;;;16.84;64.37
64343;BME280;50675;53.530;-6.312;2023-05-03T08:44:58;101779.34;;;16.85;64.34
64343;BME280;50675;53.530;-6.312;2023-05-03T08:47:30;101761.97;;;16.59;64.16
64343;BME280;50675;53.530;-6.312;2023-05-03T08:50:10;101780.81;;;16.61;64.36
64343;BME280;50675;53.530;-6.312;2023-05-03T08:52:44;101782.03;;;16.80;63.86
64343;BME280;50675;53.530;-6.312;2023-05-03T08:55:10;101786.88;;;16.73;64.03
64343;BME280;50675;53.530;-6.312;2023-05-03T08:57:36;101777.97;;;16.51;63.98
64343;BME280;50675;53.530;-6.312;2023-05-03T09:00:18;101765.69;;;16.80;64.02
64343;BME280;50675;53.530;-6.312;2023-05-03T09:03:10;101778.84;;;16.56;63.92
64343;BME280;50675;53.530;-6.312;2023-05-03T09:05:50;101771.84;;;16.66;63.86
64343;BME280;50675;53.530;-6.312;2023-05-03T09:08:28;101771.41;;;16.84;63.93
64343;BME280;50675;53.530;-6.312;2023-05-03T09:11:43;101765.13;;;16.83;63.84
64343;BME280;50675;53.530;-6.312;2023-05-03T09:14:14;101774.00;;;17.00;63.89
64343;BME280;50675;53.530;-6.312;2023-05-03T09:16:50;101763.91;;;17.06;63.69
64343;BME280;50675;53.530;-6.312;2023-05-03T09:19:30;101759.28;;;17.06;63.60
64343;BME280;50675;53.530;-6.312;2023-05-03T09:22:31;101765.22;;;16.93;63.63
64343;BME280;50675;53.530;-6.312;2023-05-03T09:24:59;101770.50;;;17.10;63.31
64343;BME280;50675;53.530;-6.312;2023-05-03T09:27:34;101750.28;;;17.11;63.46
64343;BME280;50675;53.530;-6.312;2023-05-03T09:30:30;101745.34;;;17.03;63.51
64343;BME280;50675;53.530;-6.312;2023-05-03T09:33:19;101756.31;;;17.13;63.30
64343;BME280;50675;53.530;-6.312;2023-05-03T09:36:07;101759.06;;;17.13;63.21
64343;BME280;50675;53.530;-6.312;2023-05-03T09:38:36;101750.13;;;17.28;63.31
64343;BME280;50675;53.530;-6.312;2023-05-03T09:41:05;101765.44;;;17.29;63.07
64343;BME280;50675;53.530;-6.312;2023-05-03T09:43:46;101756.75;;;17.42;63.13
64343;BME280;50675;53.530;-6.312;2023-05-03T09:46:34;101760.84;;;17.49;62.96
64343;BME280;50675;53.530;-6.312;2023-05-03T09:55:27;101760.50;;;17.31;62.63
64343;BME280;50675;53.530;-6.312;2023-05-03T09:58:22;101748.53;;;17.42;62.76
64343;BME280;50675;53.530;-6.312;2023-05-03T10:00:55;101742.66;;;17.70;62.40
64343;BME280;50675;53.530;-6.312;2023-05-03T10:03:38;101746.75;;;17.73;62.71
64343;BME280;50675;53.530;-6.312;2023-05-03T10:06:34;101758.00;;;17.76;62.27
64343;BME280;50675;53.530;-6.312;2023-05-03T10:09:14;101762.53;;;17.56;62.51
64343;BME280;50675;53.530;-6.312;2023-05-03T10:11:55;101756.88;;;17.72;62.20
64343;BME280;50675;53.530;-6.312;2023-05-03T10:14:37;101768.34;;;17.69;62.40
64343;BME280;50675;53.530;-6.312;2023-05-03T10:17:20;101761.22;;;17.68;62.10
64343;BME280;50675;53.530;-6.312;2023-05-03T10:20:13;101780.09;;;17.70;61.98
64343;BME280;50675;53.530;-6.312;2023-05-03T10:23:10;101766.44;;;17.75;61.84
64343;BME280;50675;53.530;-6.312;2023-05-03T10:26:11;101775.78;;;17.94;61.93
64343;BME280;50675;53.530;-6.312;2023-05-03T10:28:52;101742.41;;;17.82;62.07
64343;BME280;50675;53.530;-6.312;2023-05-03T10:31:43;101756.56;;;17.64;61.86
64343;BME280;50675;53.530;-6.312;2023-05-03T10:34:33;101754.94;;;17.68;61.72
64343;BME280;50675;53.530;-6.312;2023-05-03T10:37:28;101750.28;;;17.63;61.60
64343;BME280;50675;53.530;-6.312;2023-05-03T10:40:08;101754.16;;;17.87;61.39
64343;BME280;50675;53.530;-6.312;2023-05-03T10:42:57;101749.81;;;17.81;61.59
64343;BME280;50675;53.530;-6.312;2023-05-03T10:45:42;101741.88;;;17.90;61.65
64343;BME280;50675;53.530;-6.312;2023-05-03T10:49:07;101737.28;;;18.01;61.19
64343;BME280;50675;53.530;-6.312;2023-05-03T10:51:40;101740.81;;;18.06;61.44
64343;BME280;50675;53.530;-6.312;2023-05-03T10:54:21;101747.38;;;18.20;61.13
64343;BME280;50675;53.530;-6.312;2023-05-03T10:56:56;101738.66;;;18.18;61.23
64343;BME280;50675;53.530;-6.312;2023-05-03T10:59:53;101744.91;;;18.04;61.07
64343;BME280;50675;53.530;-6.312;2023-05-03T11:02:36;101734.00;;;18.14;61.08
64343;BME280;50675;53.530;-6.312;2023-05-03T11:05:22;101750.41;;;18.24;60.66
64343;BME280;50675;53.530;-6.312;2023-05-03T11:08:04;101745.22;;;18.32;60.72
64343;BME280;50675;53.530;-6.312;2023-05-03T11:10:37;101733.72;;;18.35;60.83
64343;BME280;50675;53.530;-6.312;2023-05-03T11:13:09;101724.97;;;18.28;60.50
64343;BME280;50675;53.530;-6.312;2023-05-03T11:15:57;101737.53;;;18.45;60.55
64343;BME280;50675;53.530;-6.312;2023-05-03T11:18:34;101728.53;;;18.34;60.43
64343;BME280;50675;53.530;-6.312;2023-05-03T11:21:16;101741.41;;;18.44;60.38
64343;BME280;50675;53.530;-6.312;2023-05-03T11:23:43;101720.88;;;18.41;60.45
64343;BME280;50675;53.530;-6.312;2023-05-03T11:26:27;101728.53;;;18.24;59.83
64343;BME280;50675;53.530;-6.312;2023-05-03T11:29:08;101721.69;;;18.26;60.25
64343;BME280;50675;53.530;-6.312;2023-05-03T11:31:59;101725.50;;;18.35;60.04
64343;BME280;50675;53.530;-6.312;2023-05-03T11:35:07;101718.94;;;18.42;59.99
64343;BME280;50675;53.530;-6.312;2023-05-03T11:37:54;101724.97;;;18.64;59.62
64343;BME280;50675;53.530;-6.312;2023-05-03T11:40:41;101728.25;;;18.46;59.69
64343;BME280;50675;53.530;-6.312;2023-05-03T11:43:24;101725.25;;;18.22;59.57
64343;BME280;50675;53.530;-6.312;2023-05-03T11:46:32;101725.81;;;18.34;59.67
64343;BME280;50675;53.530;-6.312;2023-05-03T11:49:22;101723.31;;;18.17;59.58
64343;BME280;50675;53.530;-6.312;2023-05-03T13:30:16;101657.13;;;18.20;57.13
64343;BME280;50675;53.530;-6.312;2023-05-03T13:32:46;101633.34;;;18.11;56.94
64343;BME280;50675;53.530;-6.312;2023-05-03T13:35:12;101656.03;;;18.16;56.90
64343;BME280;50675;53.530;-6.312;2023-05-03T13:37:38;101622.41;;;18.16;56.96
64343;BME280;50675;53.530;-6.312;2023-05-03T13:40:05;101651.41;;;18.17;57.06
64343;BME280;50675;53.530;-6.312;2023-05-03T13:42:34;101644.28;;;18.06;56.95
64343;BME280;50675;53.530;-6.312;2023-05-03T13:45:01;101646.22;;;18.00;56.84
64343;BME280;50675;53.530;-6.312;2023-05-03T13:47:27;101652.22;;;17.92;56.73
64343;BME280;50675;53.530;-6.312;2023-05-03T13:49:56;101643.75;;;17.88;56.64
64343;BME280;50675;53.530;-6.312;2023-05-03T13:52:22;101649.78;;;17.96;56.64
64343;BME280;50675;53.530;-6.312;2023-05-03T13:54:48;101644.59;;;18.09;56.58
64343;BME280;50675;53.530;-6.312;2023-05-03T13:57:15;101627.63;;;17.92;56.49
64343;BME280;50675;53.530;-6.312;2023-05-03T13:59:40;101617.75;;;18.16;56.53
64343;BME280;50675;53.530;-6.312;2023-05-03T14:02:06;101644.28;;;18.16;56.68
64343;BME280;50675;53.530;-6.312;2023-05-03T14:04:32;101637.44;;;18.33;56.56
64343;BME280;50675;53.530;-6.312;2023-05-03T14:06:58;101623.78;;;18.33;56.57
64343;BME280;50675;53.530;-6.312;2023-05-03T14:09:28;101628.09;;;18.50;56.10
64343;BME280;50675;53.530;-6.312;2023-05-03T14:11:54;101625.91;;;18.67;56.68
64343;BME280;50675;53.530;-6.312;2023-05-03T14:14:20;101614.97;;;18.52;56.83
64343;BME280;50675;53.530;-6.312;2023-05-03T14:16:46;101610.34;;;18.62;56.83
64343;BME280;50675;53.530;-6.312;2023-05-03T14:19:12;101620.97;;;18.69;56.80
64343;BME280;50675;53.530;-6.312;2023-05-03T14:21:41;101619.31;;;18.68;56.62
64343;BME280;50675;53.530;-6.312;2023-05-03T14:24:07;101610.00;;;18.74;56.62
64343;BME280;50675;53.530;-6.312;2023-05-03T14:26:36;101615.47;;;18.74;56.53
64343;BME280;50675;53.530;-6.312;2023-05-03T14:29:02;101612.78;;;18.59;56.34
64343;BME280;50675;53.530;-6.312;2023-05-03T14:31:30;101604.84;;;18.67;56.70
64343;BME280;50675;53.530;-6.312;2023-05-03T14:34:01;101596.34;;;18.69;56.37
64343;BME280;50675;53.530;-6.312;2023-05-03T14:36:27;101611.09;;;18.68;56.39
64343;BME280;50675;53.530;-6.312;2023-05-03T14:38:59;101602.31;;;18.86;56.11
64343;BME280;50675;53.530;-6.312;2023-05-03T14:41:31;101593.63;;;18.64;56.42
64343;BME280;50675;53.530;-6.312;2023-05-03T14:44:01;101581.47;;;18.90;56.49
64343;BME280;50675;53.530;-6.312;2023-05-03T14:46:28;101606.91;;;18.96;56.12
64343;BME280;50675;53.530;-6.312;2023-05-03T14:48:56;101584.75;;;18.92;56.52
64343;BME280;50675;53.530;-6.312;2023-05-03T14:51:23;101587.25;;;18.78;56.39
64343;BME280;50675;53.530;-6.312;2023-05-03T14:53:55;101599.09;;;18.59;55.85
64343;BME280;50675;53.530;-6.312;2023-05-03T14:56:24;101587.06;;;18.60;56.23
64343;BME280;50675;53.530;-6.312;2023-05-03T14:58:51;101591.94;;;18.68;55.79
64343;BME280;50675;53.530;-6.312;2023-05-03T15:01:19;101570.66;;;18.60;55.85
64343;BME280;50675;53.530;-6.312;2023-05-03T15:03:48;101559.22;;;18.38;55.80
64343;BME280;50675;53.530;-6.312;2023-05-03T15:06:14;101574.16;;;18.70;55.99
64343;BME280;50675;53.530;-6.312;2023-05-03T15:08:46;101575.50;;;18.73;55.69
64343;BME280;50675;53.530;-6.312;2023-05-03T15:11:16;101571.59;;;18.94;55.96
64343;BME280;50675;53.530;-6.312;2023-05-03T15:13:42;101560.31;;;19.01;55.96
64343;BME280;50675;53.530;-6.312;2023-05-03T16:09:43;101503.94;;;19.00;55.02
64343;BME280;50675;53.530;-6.312;2023-05-03T16:13:44;101503.19;;;18.89;54.95
64343;BME280;50675;53.530;-6.312;2023-05-03T16:32:18;101495.63;;;18.71;54.59
64343;BME280;50675;53.530;-6.312;2023-05-03T16:34:44;101502.69;;;18.77;54.29
64343;BME280;50675;53.530;-6.312;2023-05-03T16:37:10;101504.63;;;18.76;54.68
64343;BME280;50675;53.530;-6.312;2023-05-03T16:39:36;101492.22;;;18.89;54.48
64343;BME280;50675;53.530;-6.312;2023-05-03T16:42:02;101491.44;;;18.84;54.31
64343;BME280;50675;53.530;-6.312;2023-05-03T16:44:28;101488.47;;;18.75;54.27
64343;BME280;50675;53.530;-6.312;2023-05-03T16:46:53;101490.13;;;18.76;54.44
64343;BME280;50675;53.530;-6.312;2023-05-03T16:49:19;101489.63;;;18.64;54.24
64343;BME280;50675;53.530;-6.312;2023-05-03T16:51:45;101482.00;;;18.56;54.46
64343;BME280;50675;53.530;-6.312;2023-05-03T16:54:11;101485.72;;;18.80;54.29
64343;BME280;50675;53.530;-6.312;2023-05-03T16:56:41;101479.44;;;18.74;54.39
64343;BME280;50675;53.530;-6.312;2023-05-03T16:59:07;101466.03;;;18.73;54.48
64343;BME280;50675;53.530;-6.312;2023-05-03T17:01:33;101491.72;;;18.82;54.38
64343;BME280;50675;53.530;-6.312;2023-05-03T17:03:59;101482.78;;;18.66;54.35
64343;BME280;50675;53.530;-6.312;2023-05-03T17:06:25;101464.66;;;18.75;54.49
64343;BME280;50675;53.530;-6.312;2023-05-03T17:08:51;101470.38;;;18.79;54.23
64343;BME280;50675;53.530;-6.312;2023-05-03T17:11:17;101459.84;;;18.52;54.63
64343;BME280;50675;53.530;-6.312;2023-05-03T17:13:43;101478.16;;;18.62;54.35
64343;BME280;50675;53.530;-6.312;2023-05-03T17:16:11;101460.69;;;18.48;54.46
64343;BME280;50675;53.530;-6.312;2023-05-03T17:18:39;101472.69;;;18.52;54.61
64343;BME280;50675;53.530;-6.312;2023-05-03T17:21:06;101467.22;;;18.52;54.50
64343;BME280;50675;53.530;-6.312;2023-05-03T17:23:33;101469.22;;;18.36;54.58
64343;BME280;50675;53.530;-6.312;2023-05-03T17:26:01;101460.94;;;18.56;54.68
64343;BME280;50675;53.530;-6.312;2023-05-03T17:28:28;101461.97;;;18.65;54.53
64343;BME280;50675;53.530;-6.312;2023-05-03T17:30:55;101445.28;;;18.67;54.56
64343;BME280;50675;53.530;-6.312;2023-05-03T17:33:22;101448.09;;;18.57;54.45
64343;BME280;50675;53.530;-6.312;2023-05-03T17:35:48;101449.75;;;18.48;54.71
64343;BME280;50675;53.530;-6.312;2023-05-03T17:38:14;101437.13;;;18.52;54.83
64343;BME280;50675;53.530;-6.312;2023-05-03T17:40:39;101447.28;;;18.46;54.90
64343;BME280;50675;53.530;-6.312;2023-05-03T17:43:08;101431.16;;;18.40;54.75
64343;BME280;50675;53.530;-6.312;2023-05-03T17:45:34;101427.13;;;18.27;54.52
64343;BME280;50675;53.530;-6.312;2023-05-03T17:48:01;101426.78;;;18.44;54.57
64343;BME280;50675;53.530;-6.312;2023-05-03T17:50:27;101423.31;;;18.23;54.78
64343;BME280;50675;53.530;-6.312;2023-05-03T17:52:53;101430.13;;;18.30;54.62
64343;BME280;50675;53.530;-6.312;2023-05-03T17:55:19;101422.41;;;18.43;54.81
64343;BME280;50675;53.530;-6.312;2023-05-03T17:57:45;101424.75;;;18.10;54.61
64343;BME280;50675;53.530;-6.312;2023-05-03T18:00:11;101425.88;;;17.99;54.68
64343;BME280;50675;53.530;-6.312;2023-05-03T18:02:43;101423.59;;;18.21;54.81
64343;BME280;50675;53.530;-6.312;2023-05-03T18:05:10;101431.53;;;18.18;54.72
64343;BME280;50675;53.530;-6.312;2023-05-03T18:07:36;101420.84;;;18.21;55.06
64343;BME280;50675;53.530;-6.312;2023-05-03T18:10:02;101417.09;;;18.07;54.99
64343;BME280;50675;53.530;-6.312;2023-05-03T18:12:29;101428.88;;;18.03;55.09
64343;BME280;50675;53.530;-6.312;2023-05-03T18:14:55;101423.47;;;17.77;54.91
64343;BME280;50675;53.530;-6.312;2023-05-03T18:17:30;101433.59;;;17.77;55.21
64343;BME280;50675;53.530;-6.312;2023-05-03T18:19:56;101418.59;;;17.64;54.96
64343;BME280;50675;53.530;-6.312;2023-05-03T18:22:22;101422.69;;;17.72;55.13
64343;BME280;50675;53.530;-6.312;2023-05-03T18:24:53;101425.69;;;17.50;54.99
64343;BME280;50675;53.530;-6.312;2023-05-03T18:27:19;101422.69;;;17.62;55.08
64343;BME280;50675;53.530;-6.312;2023-05-03T18:29:48;101416.66;;;17.55;55.34
64343;BME280;50675;53.530;-6.312;2023-05-03T18:32:14;101418.88;;;17.32;55.37
64343;BME280;50675;53.530;-6.312;2023-05-03T18:34:40;101401.94;;;17.35;55.37
64343;BME280;50675;53.530;-6.312;2023-05-03T18:37:06;101412.03;;;17.30;55.31
64343;BME280;50675;53.530;-6.312;2023-05-03T18:39:32;101406.88;;;17.18;55.24
64343;BME280;50675;53.530;-6.312;2023-05-03T18:41:59;101413.97;;;17.14;55.56
64343;BME280;50675;53.530;-6.312;2023-05-03T18:44:25;101410.41;;;17.09;55.45
64343;BME280;50675;53.530;-6.312;2023-05-03T18:46:51;101398.69;;;17.13;55.61
